createdAt,value
2022-12-15T00:00:23.392Z,64.43
2022-12-15T00:03:30.769Z,59.80
2022-12-15T00:06:19.544Z,64.82
2022-12-15T00:09:08.551Z,66.10
2022-12-15T00:11:59.033Z,65.43
2022-12-15T00:14:45.653Z,61.28
2022-12-15T00:17:32.006Z,61.15
2022-12-15T00:20:18.556Z,64.90
2022-12-15T00:23:05.197Z,56.25
2022-12-15T00:25:52.033Z,60.97
2022-12-15T00:28:38.496Z,59.70
2022-12-15T00:31:25.361Z,61.03
2022-12-15T00:34:11.958Z,59.05
2022-12-15T00:36:58.361Z,65.25
2022-12-15T00:39:26.153Z,60.17
2022-12-15T00:41:54.132Z,58.13
2022-12-15T00:44:23.275Z,58.92
2022-12-15T00:46:57.323Z,58.03
2022-12-15T00:49:52.638Z,60.25
2022-12-15T00:52:39.269Z,60.17
2022-12-15T00:55:26.079Z,62.08
2022-12-15T00:58:13.174Z,67.00
2022-12-15T01:00:59.853Z,57.72
2022-12-15T01:03:46.338Z,59.00
2022-12-15T01:06:35.733Z,59.20
2022-12-15T01:09:23.495Z,56.78
2022-12-15T01:12:10.150Z,62.83
2022-12-15T01:14:57.296Z,62.25
2022-12-15T01:17:43.847Z,67.72
2022-12-15T01:20:18.310Z,66.47
2022-12-15T01:22:50.538Z,61.92
2022-12-15T01:25:20.827Z,65.50
2022-12-15T01:27:49.275Z,62.28
2022-12-15T01:30:24.558Z,59.03
2022-12-15T01:32:53.130Z,65.35
2022-12-15T01:35:21.904Z,60.22
2022-12-15T01:37:49.897Z,62.38
2022-12-15T01:40:39.770Z,58.75
2022-12-15T01:43:13.996Z,64.97
2022-12-15T01:46:16.065Z,56.20
2022-12-15T01:48:59.223Z,57.70
2022-12-15T01:51:37.502Z,62.75
2022-12-15T01:54:23.562Z,59.90
2022-12-15T01:56:56.890Z,58.40
2022-12-15T01:59:33.136Z,42.28
2022-12-15T02:02:02.279Z,55.80
2022-12-15T02:04:31.268Z,61.30
2022-12-15T02:06:59.385Z,54.13
2022-12-15T02:09:28.470Z,56.92
2022-12-15T02:12:07.242Z,55.08
2022-12-15T02:15:03.214Z,58.58
2022-12-15T02:17:40.296Z,55.42
2022-12-15T02:20:23.580Z,55.83
2022-12-15T02:23:12.440Z,55.72
2022-12-15T02:26:17.264Z,57.13
2022-12-15T02:28:59.326Z,55.90
2022-12-15T02:31:50.151Z,54.20
2022-12-15T02:34:53.886Z,57.97
2022-12-15T02:37:32.664Z,55.90
2022-12-15T02:40:00.972Z,54.40
2022-12-15T02:42:32.084Z,54.42
2022-12-15T02:44:59.981Z,60.03
2022-12-15T02:48:01.244Z,57.83
2022-12-15T02:50:51.546Z,56.88
2022-12-15T02:53:50.825Z,59.53
2022-12-15T02:56:40.078Z,58.28
2022-12-15T02:59:25.485Z,58.75
2022-12-15T03:01:58.496Z,56.58
2022-12-15T03:04:27.481Z,57.47
2022-12-15T03:07:01.243Z,58.05
2022-12-15T03:09:32.607Z,61.42
2022-12-15T03:12:00.823Z,60.85
2022-12-15T03:14:28.793Z,63.45
2022-12-15T03:16:56.822Z,62.28
2022-12-15T03:19:25.924Z,63.08
2022-12-15T03:21:53.913Z,61.70
2022-12-15T03:24:21.632Z,60.97
2022-12-15T03:26:50.220Z,59.63
2022-12-15T03:29:18.840Z,55.58
2022-12-15T03:31:49.882Z,56.00
2022-12-15T03:34:18.189Z,58.38
2022-12-15T03:36:46.562Z,56.75
2022-12-15T03:39:14.671Z,60.03
2022-12-15T03:41:42.915Z,65.35
2022-12-15T03:44:10.639Z,61.08
2022-12-15T03:46:38.861Z,60.75
2022-12-15T03:49:07.120Z,63.30
2022-12-15T03:51:35.367Z,62.65
2022-12-15T03:54:03.047Z,60.90
2022-12-15T03:56:31.094Z,58.78
2022-12-15T03:58:58.867Z,59.95
2022-12-15T04:01:31.553Z,59.17
2022-12-15T04:04:01.172Z,59.78
2022-12-15T04:06:30.993Z,60.63
2022-12-15T04:08:58.872Z,59.42
2022-12-15T04:11:26.846Z,60.30
2022-12-15T04:13:54.591Z,60.47
2022-12-15T04:16:22.636Z,62.55
2022-12-15T04:19:10.370Z,59.30
2022-12-15T04:21:38.336Z,59.17
2022-12-15T04:24:25.261Z,62.15
2022-12-15T04:27:11.877Z,62.88
2022-12-15T04:29:58.014Z,68.82
2022-12-15T04:32:44.783Z,64.80
2022-12-15T04:35:36.565Z,68.38
2022-12-15T04:38:22.974Z,64.53
2022-12-15T04:41:09.316Z,68.53
2022-12-15T04:43:56.227Z,68.03
2022-12-15T04:46:42.450Z,67.25
2022-12-15T04:49:28.861Z,64.03
2022-12-15T04:52:16.135Z,62.40
2022-12-15T04:55:02.554Z,65.20
2022-12-15T04:57:48.978Z,65.63
2022-12-15T05:00:35.631Z,62.85
2022-12-15T05:03:26.578Z,70.30
2022-12-15T05:06:12.999Z,71.63
2022-12-15T05:08:59.482Z,66.15
2022-12-15T05:11:46.076Z,66.40
2022-12-15T05:14:32.422Z,73.38
2022-12-15T05:17:19.008Z,71.85
2022-12-15T05:20:05.446Z,76.90
2022-12-15T05:22:52.160Z,76.13
2022-12-15T05:25:38.837Z,68.75
2022-12-15T05:28:25.904Z,65.53
2022-12-15T05:31:12.424Z,71.70
2022-12-15T05:33:40.709Z,65.72
2022-12-15T05:36:08.807Z,64.07
2022-12-15T05:38:36.973Z,67.47
2022-12-15T05:41:04.687Z,66.95
2022-12-15T05:43:32.961Z,65.95
2022-12-15T05:46:05.278Z,78.07
2022-12-15T05:48:33.406Z,66.03
2022-12-15T05:51:11.181Z,68.55
2022-12-15T05:53:41.001Z,65.10
2022-12-15T05:56:11.810Z,62.92
2022-12-15T05:58:45.153Z,60.67
2022-12-15T06:03:42.933Z,60.88
2022-12-15T06:06:12.504Z,65.30
2022-12-15T06:08:42.456Z,67.57
2022-12-15T06:11:15.439Z,62.42
2022-12-15T06:13:44.331Z,65.38
2022-12-15T06:16:15.272Z,66.70
2022-12-15T06:18:50.131Z,67.47
2022-12-15T06:21:21.354Z,68.55
2022-12-15T06:23:49.977Z,65.03
2022-12-15T06:26:26.985Z,67.47
2022-12-15T06:28:57.304Z,69.35
2022-12-15T06:31:26.126Z,67.43
2022-12-15T06:34:01.254Z,67.90
2022-12-15T06:36:31.081Z,68.88
2022-12-15T06:39:01.206Z,71.95
2022-12-15T06:41:30.621Z,69.18
2022-12-15T06:44:00.192Z,73.88
2022-12-15T06:46:30.294Z,75.40
2022-12-15T06:48:59.193Z,72.90
2022-12-15T06:51:28.056Z,69.68
2022-12-15T06:53:56.578Z,67.28
2022-12-15T06:56:38.910Z,71.88
2022-12-15T06:59:08.567Z,73.78
2022-12-15T07:01:36.776Z,70.30
2022-12-15T07:04:05.753Z,70.18
2022-12-15T07:06:38.485Z,71.85
2022-12-15T07:09:12.732Z,50.97
2022-12-15T07:11:40.682Z,73.78
2022-12-15T07:14:09.285Z,76.13
2022-12-15T07:16:37.134Z,70.65
2022-12-15T07:19:05.197Z,72.07
2022-12-15T07:21:33.034Z,69.25
2022-12-15T07:24:01.956Z,75.70
2022-12-15T07:26:30.633Z,78.97
2022-12-15T07:28:58.649Z,75.57
2022-12-15T07:31:26.393Z,77.55
2022-12-15T07:33:54.799Z,76.28
2022-12-15T07:36:22.831Z,76.10
2022-12-15T07:38:51.589Z,79.10
2022-12-15T07:41:20.605Z,85.40
2022-12-15T07:43:48.775Z,81.65
2022-12-15T07:46:18.230Z,80.18
2022-12-15T07:48:50.227Z,78.32
2022-12-15T07:51:22.770Z,79.22
2022-12-15T07:53:51.369Z,83.00
2022-12-15T07:56:20.489Z,82.57
2022-12-15T07:58:48.920Z,85.30
2022-12-15T08:01:17.191Z,76.82
2022-12-15T08:03:45.481Z,77.18
2022-12-15T08:06:15.139Z,76.95
2022-12-15T08:08:50.448Z,80.57
2022-12-15T08:11:23.071Z,81.25
2022-12-15T08:14:10.568Z,79.95
2022-12-15T08:16:39.793Z,75.13
2022-12-15T08:19:11.146Z,82.20
2022-12-15T08:21:40.665Z,77.25
2022-12-15T08:24:09.731Z,79.20
2022-12-15T08:26:38.388Z,76.55
2022-12-15T08:31:56.011Z,70.03
2022-12-15T08:34:24.033Z,76.47
2022-12-15T08:36:51.819Z,74.90
2022-12-15T08:39:20.519Z,77.38
2022-12-15T08:41:48.237Z,73.60
2022-12-15T08:44:19.370Z,71.88
2022-12-15T08:46:47.129Z,68.43
2022-12-15T08:49:21.144Z,76.63
2022-12-15T08:51:50.700Z,69.75
2022-12-15T08:54:20.668Z,62.53
2022-12-15T08:56:48.785Z,50.97
2022-12-15T08:59:17.152Z,45.83
2022-12-15T09:01:45.102Z,40.30
2022-12-15T09:04:13.528Z,48.92
2022-12-15T09:06:41.784Z,49.17
2022-12-15T09:09:13.209Z,46.72
2022-12-15T09:11:40.986Z,48.58
2022-12-15T09:14:09.018Z,50.53
2022-12-15T09:16:36.937Z,71.53
2022-12-15T09:19:05.221Z,55.83
2022-12-15T09:21:32.950Z,46.65
2022-12-15T09:24:02.381Z,55.17
2022-12-15T09:26:33.078Z,52.10
2022-12-15T09:29:04.741Z,53.10
2022-12-15T09:31:37.318Z,58.20
2022-12-15T09:34:05.379Z,49.97
2022-12-15T09:36:34.247Z,50.03
2022-12-15T09:39:03.107Z,51.65
2022-12-15T09:41:34.766Z,54.60
2022-12-15T09:44:17.543Z,52.63
2022-12-15T09:47:28.604Z,43.08
2022-12-15T09:50:00.054Z,48.33
2022-12-15T09:52:56.821Z,43.08
2022-12-15T09:55:30.412Z,44.60
2022-12-15T09:58:18.851Z,53.13
2022-12-15T10:01:13.291Z,62.78
2022-12-15T10:03:50.613Z,57.45
2022-12-15T10:06:22.699Z,58.55
2022-12-15T10:09:02.365Z,61.58
2022-12-15T10:11:33.127Z,66.07
2022-12-15T10:14:24.566Z,55.47
2022-12-15T10:17:26.243Z,61.97
2022-12-15T10:20:18.469Z,58.17
2022-12-15T10:22:50.155Z,57.50
2022-12-15T10:25:30.482Z,58.97
2022-12-15T10:27:58.760Z,62.80
2022-12-15T10:30:26.899Z,69.72
2022-12-15T10:33:10.657Z,65.13
2022-12-15T10:35:40.523Z,70.45
2022-12-15T10:38:25.356Z,75.90
2022-12-15T10:40:56.863Z,77.18
2022-12-15T10:43:41.016Z,80.75
2022-12-15T10:49:09.095Z,83.20
2022-12-15T10:51:50.363Z,61.60
2022-12-15T10:54:19.122Z,74.60
2022-12-15T10:56:53.742Z,76.35
2022-12-15T10:59:31.781Z,71.13
2022-12-15T11:02:25.491Z,68.25
2022-12-15T11:04:58.298Z,75.18
2022-12-15T11:07:41.674Z,71.65
2022-12-15T11:10:15.907Z,74.03
2022-12-15T11:13:00.918Z,89.20
2022-12-15T11:15:31.934Z,122.05
2022-12-15T11:18:15.961Z,112.95
2022-12-15T11:21:11.556Z,80.78
2022-12-15T11:24:02.003Z,93.00
2022-12-15T11:26:54.743Z,89.18
2022-12-15T11:29:55.618Z,73.93
2022-12-15T11:32:32.174Z,70.50
2022-12-15T11:35:00.638Z,89.88
2022-12-15T11:37:52.738Z,83.05
2022-12-15T11:40:30.750Z,77.15
2022-12-15T11:43:18.976Z,84.30
2022-12-15T11:46:07.352Z,98.93
2022-12-15T11:49:13.812Z,76.05
2022-12-15T11:52:06.364Z,83.72
2022-12-15T11:54:49.872Z,87.60
2022-12-15T12:00:15.867Z,89.68
2022-12-15T12:03:01.084Z,76.90
2022-12-15T12:05:58.495Z,80.53
2022-12-15T12:08:44.462Z,83.35
2022-12-15T12:11:51.244Z,80.30
2022-12-15T12:14:54.068Z,87.70
2022-12-15T12:17:45.364Z,90.20
2022-12-15T12:20:25.953Z,91.47
2022-12-15T12:23:00.014Z,93.03
2022-12-15T12:25:30.004Z,98.35
2022-12-15T12:28:00.828Z,100.15
2022-12-15T12:30:45.796Z,103.75
2022-12-15T12:33:41.184Z,106.07
2022-12-15T12:36:14.384Z,104.53
2022-12-15T12:38:52.238Z,101.07
2022-12-15T12:41:22.739Z,101.57
2022-12-15T12:43:58.186Z,106.13
2022-12-15T12:46:49.015Z,97.65
2022-12-15T12:49:56.480Z,99.40
2022-12-15T12:52:37.040Z,101.22
2022-12-15T12:55:14.842Z,96.15
2022-12-15T12:57:43.930Z,94.53
2022-12-15T13:00:20.953Z,94.32
2022-12-15T13:03:10.972Z,92.63
2022-12-15T13:05:40.878Z,96.68
2022-12-15T13:08:08.813Z,130.48
2022-12-15T13:10:41.781Z,106.72
2022-12-15T13:13:15.408Z,88.57
2022-12-15T13:15:50.923Z,99.13
2022-12-15T13:18:24.671Z,102.38
2022-12-15T13:20:57.164Z,96.47
2022-12-15T13:23:24.811Z,94.90
2022-12-15T13:25:59.180Z,101.03
2022-12-15T13:28:39.394Z,93.28
2022-12-15T13:31:16.627Z,97.38
2022-12-15T13:33:50.483Z,100.40
2022-12-15T13:36:41.443Z,103.60
2022-12-15T13:39:14.870Z,98.57
2022-12-15T13:44:44.222Z,122.40
2022-12-15T13:47:20.358Z,111.43
2022-12-15T13:50:02.229Z,88.90
2022-12-15T13:53:17.170Z,102.47
2022-12-15T13:56:06.314Z,102.07
2022-12-15T13:58:50.571Z,100.50
2022-12-15T14:01:28.568Z,111.78
2022-12-15T14:04:04.652Z,100.55
2022-12-15T14:06:38.696Z,97.03
2022-12-15T14:09:13.642Z,95.95
2022-12-15T14:14:37.083Z,98.47
2022-12-15T14:17:09.237Z,88.00
2022-12-15T14:19:51.025Z,83.85
2022-12-15T14:22:30.534Z,83.05
2022-12-15T14:25:26.084Z,87.70
2022-12-15T14:27:53.795Z,79.70
2022-12-15T14:30:32.993Z,90.85
2022-12-15T14:33:07.105Z,90.43
2022-12-15T14:35:49.421Z,95.30
2022-12-15T14:38:39.790Z,96.80
2022-12-15T14:41:17.080Z,93.28
2022-12-15T14:43:44.971Z,97.90
2022-12-15T14:46:33.211Z,96.80
2022-12-15T14:49:07.253Z,96.57
2022-12-15T14:51:47.538Z,108.63
2022-12-15T14:54:28.285Z,119.35
2022-12-15T14:57:27.111Z,91.57
2022-12-15T14:59:55.728Z,87.35
2022-12-15T15:02:29.919Z,85.70
2022-12-15T15:03:14.222Z,94.18
2022-12-15T15:05:05.491Z,85.57
2022-12-15T15:07:35.420Z,88.70
2022-12-15T15:10:08.786Z,81.93
2022-12-15T15:12:47.325Z,84.68
2022-12-15T15:15:18.205Z,85.63
2022-12-15T15:17:54.905Z,77.90
2022-12-15T15:20:31.778Z,85.60
2022-12-15T15:23:10.796Z,87.35
2022-12-15T15:25:41.557Z,82.57
2022-12-15T15:28:15.650Z,81.82
2022-12-15T15:33:18.340Z,84.20
2022-12-15T15:35:52.074Z,84.28
2022-12-15T15:38:32.445Z,85.10
2022-12-15T15:41:11.010Z,82.82
2022-12-15T15:43:39.043Z,86.72
2022-12-15T15:46:12.953Z,82.50
2022-12-15T15:48:57.589Z,84.82
2022-12-15T15:51:27.380Z,87.35
2022-12-15T15:54:00.149Z,83.65
2022-12-15T15:56:30.973Z,84.63
2022-12-15T15:59:09.297Z,85.22
2022-12-15T16:01:37.083Z,84.88
2022-12-15T16:04:06.794Z,78.57
2022-12-15T16:06:35.309Z,76.85
2022-12-15T16:09:06.529Z,82.45
2022-12-15T16:11:35.312Z,83.68
2022-12-15T16:14:03.716Z,88.72
2022-12-15T16:16:33.404Z,89.63
2022-12-15T16:19:01.388Z,86.90
2022-12-15T16:21:29.309Z,84.47
2022-12-15T16:23:58.495Z,83.57
2022-12-15T16:26:33.377Z,75.97
2022-12-15T16:29:01.456Z,84.22
2022-12-15T16:31:41.429Z,75.78
2022-12-15T16:34:09.905Z,91.32
2022-12-15T16:36:37.674Z,84.47
2022-12-15T16:39:13.663Z,85.05
2022-12-15T16:41:41.471Z,82.43
2022-12-15T16:44:12.573Z,80.65
2022-12-15T16:46:40.543Z,75.78
2022-12-15T16:49:08.632Z,82.90
2022-12-15T16:51:43.038Z,84.45
2022-12-15T16:54:33.969Z,71.28
2022-12-15T16:57:02.113Z,79.50
2022-12-15T16:59:34.712Z,87.28
2022-12-15T17:02:23.080Z,89.10
2022-12-15T17:04:51.664Z,79.03
2022-12-15T17:07:20.697Z,88.45
2022-12-15T17:09:51.904Z,89.95
2022-12-15T17:12:19.907Z,91.45
2022-12-15T17:14:48.181Z,85.55
2022-12-15T17:17:17.890Z,80.70
2022-12-15T17:20:19.843Z,91.40
2022-12-15T17:22:34.564Z,93.15
2022-12-15T17:25:02.628Z,83.88
2022-12-15T17:27:30.665Z,96.43
2022-12-15T17:30:00.573Z,88.97
2022-12-15T17:32:28.348Z,86.68
2022-12-15T17:34:56.661Z,88.20
2022-12-15T17:37:26.140Z,85.43
2022-12-15T17:39:57.269Z,75.38
2022-12-15T17:42:24.983Z,94.03
2022-12-15T17:44:52.999Z,97.30
2022-12-15T17:47:20.995Z,99.45
2022-12-15T17:49:48.934Z,93.68
2022-12-15T17:52:27.325Z,98.30
2022-12-15T17:54:56.578Z,94.90
2022-12-15T17:57:24.716Z,94.30
2022-12-15T17:59:52.821Z,90.47
2022-12-15T18:02:20.731Z,85.20
2022-12-15T18:04:49.119Z,78.45
2022-12-15T18:07:22.774Z,86.60
2022-12-15T18:09:52.998Z,83.78
2022-12-15T18:12:24.393Z,95.00
2022-12-15T18:14:53.212Z,87.45
2022-12-15T18:17:21.723Z,91.47
2022-12-15T18:19:49.887Z,109.47
2022-12-15T18:22:23.782Z,110.60
2022-12-15T18:24:53.675Z,117.30
2022-12-15T18:27:27.520Z,103.53
2022-12-15T18:29:56.907Z,96.00
2022-12-15T18:32:27.181Z,92.05
2022-12-15T18:34:55.910Z,93.72
2022-12-15T18:37:25.373Z,82.35
2022-12-15T18:39:53.524Z,83.22
2022-12-15T18:42:23.187Z,77.85
2022-12-15T18:44:53.066Z,86.68
2022-12-15T18:47:23.079Z,84.35
2022-12-15T18:49:51.812Z,112.80
2022-12-15T18:52:22.795Z,102.10
2022-12-15T18:54:53.246Z,82.25
2022-12-15T18:57:37.894Z,83.80
2022-12-15T19:00:25.601Z,87.07
2022-12-15T19:02:55.407Z,80.63
2022-12-15T19:05:29.994Z,92.75
2022-12-15T19:08:24.779Z,95.13
2022-12-15T19:10:55.879Z,91.35
2022-12-15T19:13:31.469Z,94.28
2022-12-15T19:16:01.446Z,90.30
2022-12-15T19:18:47.999Z,86.38
2022-12-15T19:21:37.444Z,81.47
2022-12-15T19:24:09.655Z,83.72
2022-12-15T19:26:40.313Z,88.40
2022-12-15T19:29:15.207Z,80.40
2022-12-15T19:31:43.655Z,89.63
2022-12-15T19:34:11.550Z,88.97
2022-12-15T19:36:40.003Z,88.80
2022-12-15T19:39:18.197Z,93.03
2022-12-15T19:41:46.441Z,83.18
2022-12-15T19:44:17.580Z,80.40
2022-12-15T19:46:45.752Z,85.60
2022-12-15T19:49:14.437Z,82.35
2022-12-15T19:51:43.530Z,78.65
2022-12-15T19:54:18.001Z,85.57
2022-12-15T19:56:46.099Z,84.20
2022-12-15T19:59:28.222Z,85.43
2022-12-15T20:01:56.488Z,78.63
2022-12-15T20:04:24.693Z,79.40
2022-12-15T20:06:52.849Z,79.65
2022-12-15T20:09:20.663Z,72.72
2022-12-15T20:11:48.673Z,80.38
2022-12-15T20:14:18.132Z,73.63
2022-12-15T20:16:46.477Z,79.70
2022-12-15T20:19:14.260Z,71.63
2022-12-15T20:21:42.662Z,76.70
2022-12-15T20:24:16.774Z,73.40
2022-12-15T20:26:46.000Z,86.60
2022-12-15T20:29:24.976Z,88.03
2022-12-15T20:31:53.247Z,91.50
2022-12-15T20:34:22.152Z,84.60
2022-12-15T20:36:50.577Z,88.55
2022-12-15T20:39:29.299Z,94.25
2022-12-15T20:41:58.013Z,83.13
2022-12-15T20:44:25.798Z,71.60
2022-12-15T20:46:54.673Z,80.15
2022-12-15T20:49:23.950Z,84.50
2022-12-15T20:51:52.524Z,78.35
2022-12-15T20:54:22.486Z,74.22
2022-12-15T20:56:51.090Z,74.65
2022-12-15T20:59:19.005Z,72.68
2022-12-15T21:01:47.449Z,70.90
2022-12-15T21:04:21.514Z,81.38
2022-12-15T21:06:54.442Z,75.43
2022-12-15T21:09:23.722Z,69.65
2022-12-15T21:11:54.610Z,73.20
2022-12-15T21:14:23.996Z,73.45
2022-12-15T21:16:52.578Z,81.40
2022-12-15T21:19:22.037Z,81.53
2022-12-15T21:21:54.995Z,82.95
2022-12-15T21:24:28.612Z,82.00
2022-12-15T21:26:57.120Z,76.80
2022-12-15T21:29:27.997Z,79.60
2022-12-15T21:31:56.229Z,76.93
2022-12-15T21:34:23.913Z,88.03
2022-12-15T21:36:55.076Z,79.38
2022-12-15T21:39:30.159Z,90.10
2022-12-15T21:42:14.264Z,76.65
2022-12-15T21:44:42.025Z,77.30
2022-12-15T21:47:49.396Z,82.72
2022-12-15T21:50:18.426Z,89.15
2022-12-15T21:52:47.495Z,93.82
2022-12-15T21:55:21.363Z,89.63
2022-12-15T21:57:49.937Z,92.22
2022-12-15T22:00:21.282Z,90.72
2022-12-15T22:02:51.534Z,85.82
2022-12-15T22:05:23.984Z,94.60
2022-12-15T22:07:52.340Z,85.10
2022-12-15T22:10:20.113Z,90.25
2022-12-15T22:12:59.056Z,94.38
2022-12-15T22:15:28.801Z,87.25
2022-12-15T22:17:56.909Z,85.45
2022-12-15T22:20:25.530Z,89.28
2022-12-15T22:22:53.604Z,85.93
2022-12-15T22:25:24.722Z,82.53
2022-12-15T22:27:52.978Z,88.95
2022-12-15T22:30:26.821Z,83.32
2022-12-15T22:32:54.926Z,86.68
2022-12-15T22:35:25.804Z,93.95
2022-12-15T22:37:54.083Z,89.97
2022-12-15T22:40:24.261Z,83.90
2022-12-15T22:42:57.087Z,83.70
2022-12-15T22:45:25.124Z,82.80
2022-12-15T22:47:53.522Z,81.90
2022-12-15T22:50:26.842Z,85.07
2022-12-15T22:52:55.398Z,84.38
2022-12-15T22:55:24.674Z,84.40
2022-12-15T22:58:01.780Z,81.95
2022-12-15T23:00:29.605Z,77.43
2022-12-15T23:02:58.780Z,84.22
2022-12-15T23:05:26.749Z,83.65
2022-12-15T23:07:54.939Z,81.57
2022-12-15T23:10:41.549Z,80.72
2022-12-15T23:13:09.530Z,94.63
2022-12-15T23:15:55.841Z,103.43
2022-12-15T23:18:23.869Z,99.25
2022-12-15T23:20:51.748Z,99.05
2022-12-15T23:23:19.856Z,106.78
2022-12-15T23:25:47.650Z,118.65
2022-12-15T23:28:15.811Z,112.85
2022-12-15T23:30:47.923Z,113.90
2022-12-15T23:33:16.175Z,95.88
2022-12-15T23:35:44.189Z,90.65
2022-12-15T23:38:13.001Z,96.28
2022-12-15T23:40:52.612Z,87.65
2022-12-15T23:43:22.438Z,88.32
2022-12-15T23:46:16.287Z,84.70
2022-12-15T23:51:15.068Z,89.90
2022-12-15T23:53:44.803Z,94.60
2022-12-15T23:56:14.133Z,87.53
2022-12-15T23:58:45.040Z,94.18
